createdAt,value
2022-10-03T00:01:55.899Z,1.37
2022-10-03T00:07:05.991Z,1.57
2022-10-03T00:12:16.045Z,1.40
2022-10-03T00:17:26.152Z,2.00
2022-10-03T00:22:36.348Z,1.40
2022-10-03T00:27:46.455Z,1.70
2022-10-03T00:32:57.086Z,1.30
2022-10-03T00:38:07.724Z,1.33
2022-10-03T00:43:18.616Z,1.40
2022-10-03T00:48:28.705Z,1.50
2022-10-03T00:53:42.271Z,1.70
2022-10-03T00:58:51.066Z,1.63
2022-10-03T01:04:00.759Z,1.53
2022-10-03T01:09:09.962Z,1.77
2022-10-03T01:14:20.714Z,1.60
2022-10-03T01:19:30.948Z,1.80
2022-10-03T01:24:39.549Z,1.47
2022-10-03T01:29:51.577Z,1.60
2022-10-03T01:35:01.453Z,1.43
2022-10-03T01:40:11.843Z,1.80
2022-10-03T01:45:23.142Z,1.73
2022-10-03T01:50:33.890Z,1.80
2022-10-03T01:55:44.125Z,1.60
2022-10-03T02:00:54.540Z,1.97
2022-10-03T02:06:01.297Z,1.90
2022-10-03T02:11:11.747Z,1.60
2022-10-03T02:16:22.394Z,1.67
2022-10-03T02:21:33.139Z,1.77
2022-10-03T02:26:43.641Z,1.90
2022-10-03T02:31:51.862Z,2.23
2022-10-03T02:37:02.085Z,1.70
2022-10-03T02:42:15.037Z,1.60
2022-10-03T02:47:26.177Z,2.00
2022-10-03T02:52:35.202Z,1.63
2022-10-03T02:57:46.005Z,1.60
2022-10-03T03:02:59.816Z,1.50
2022-10-03T03:08:08.493Z,1.47
2022-10-03T03:13:18.766Z,1.60
2022-10-03T03:18:27.100Z,1.63
2022-10-03T03:23:37.990Z,1.67
2022-10-03T03:28:52.484Z,3.77
2022-10-03T03:34:00.939Z,1.83
2022-10-03T03:39:11.321Z,1.77
2022-10-03T03:44:21.935Z,1.50
2022-10-03T03:49:32.710Z,1.60
2022-10-03T03:54:45.058Z,1.40
2022-10-03T03:59:52.524Z,1.43
2022-10-03T04:05:03.440Z,1.20
2022-10-03T04:10:11.882Z,1.67
2022-10-03T04:15:22.208Z,1.30
2022-10-03T04:20:33.152Z,1.30
2022-10-03T04:25:43.709Z,1.30
2022-10-03T04:30:54.061Z,1.60
2022-10-03T04:36:04.943Z,1.30
2022-10-03T04:41:15.458Z,1.47
2022-10-03T04:46:26.628Z,1.40
2022-10-03T04:51:37.151Z,1.83
2022-10-03T04:56:45.909Z,1.30
2022-10-03T05:01:56.266Z,1.43
2022-10-03T05:07:08.180Z,1.33
2022-10-03T05:12:18.958Z,1.37
2022-10-03T05:17:28.138Z,1.50
2022-10-03T05:22:38.574Z,1.40
2022-10-03T05:27:50.897Z,1.20
2022-10-03T05:33:04.999Z,1.20
2022-10-03T05:38:11.250Z,0.97
2022-10-03T05:43:20.202Z,1.20
2022-10-03T05:48:30.158Z,1.20
2022-10-03T05:53:41.369Z,1.10
2022-10-03T05:58:51.923Z,1.20
2022-10-03T06:04:05.867Z,1.20
2022-10-03T06:09:16.613Z,0.90
2022-10-03T06:14:27.884Z,1.20
2022-10-03T06:19:37.988Z,1.10
2022-10-03T06:24:48.294Z,1.03
2022-10-03T06:29:59.872Z,1.00
2022-10-03T06:35:10.317Z,1.07
2022-10-03T06:40:20.982Z,0.90
2022-10-03T06:45:31.082Z,1.00
2022-10-03T06:50:41.854Z,0.80
2022-10-03T06:55:52.986Z,1.10
2022-10-03T07:01:04.351Z,1.30
2022-10-03T07:06:13.782Z,1.03
2022-10-03T07:11:26.198Z,1.17
2022-10-03T07:16:37.012Z,1.30
2022-10-03T07:21:48.050Z,1.50
2022-10-03T07:26:58.704Z,1.47
2022-10-03T07:32:11.094Z,1.40
2022-10-03T07:37:21.530Z,1.30
2022-10-03T07:42:32.408Z,1.40
2022-10-03T07:47:43.114Z,1.27
2022-10-03T07:52:53.512Z,1.40
2022-10-03T07:58:04.742Z,1.20
2022-10-03T08:03:15.096Z,1.13
2022-10-03T08:08:26.163Z,1.10
2022-10-03T08:13:38.184Z,1.30
2022-10-03T08:18:49.951Z,1.20
2022-10-03T08:24:01.195Z,1.10
2022-10-03T08:29:12.007Z,1.00
2022-10-03T08:34:22.788Z,1.00
2022-10-03T08:39:33.483Z,1.20
2022-10-03T08:44:42.229Z,1.37
2022-10-03T08:49:52.784Z,1.43
2022-10-03T08:55:06.717Z,1.43
2022-10-03T09:00:18.108Z,1.30
2022-10-03T09:05:29.078Z,1.50
2022-10-03T09:10:38.578Z,1.67
2022-10-03T09:15:50.598Z,1.60
2022-10-03T09:21:01.355Z,1.53
2022-10-03T09:26:12.515Z,1.70
2022-10-03T09:31:23.396Z,1.60
2022-10-03T09:36:32.818Z,1.70
2022-10-03T09:41:45.032Z,1.63
2022-10-03T09:46:58.755Z,1.70
2022-10-03T09:52:09.957Z,1.47
2022-10-03T09:57:23.020Z,1.50
2022-10-03T10:02:34.219Z,1.53
2022-10-03T10:07:45.127Z,1.70
2022-10-03T10:12:55.508Z,1.57
2022-10-03T10:18:06.992Z,1.73
2022-10-03T10:23:16.290Z,1.67
2022-10-03T10:28:27.412Z,1.70
2022-10-03T10:33:39.119Z,1.77
2022-10-03T10:38:50.434Z,1.60
2022-10-03T10:44:03.347Z,1.60
2022-10-03T10:49:14.158Z,1.70
2022-10-03T10:54:24.513Z,1.70
2022-10-03T10:59:35.101Z,1.90
2022-10-03T11:04:45.584Z,1.80
2022-10-03T11:09:56.240Z,1.70
2022-10-03T11:15:07.188Z,1.93
2022-10-03T11:20:18.432Z,1.70
2022-10-03T11:25:29.940Z,1.90
2022-10-03T11:30:40.977Z,1.80
2022-10-03T11:35:54.514Z,1.73
2022-10-03T11:41:10.196Z,1.67
2022-10-03T11:46:21.125Z,1.53
2022-10-03T11:51:32.033Z,1.67
2022-10-03T11:56:42.919Z,1.80
2022-10-03T12:01:55.809Z,1.67
2022-10-03T12:07:07.116Z,1.80
2022-10-03T12:12:19.893Z,1.60
2022-10-03T12:17:34.633Z,1.80
2022-10-03T12:22:49.390Z,1.60
2022-10-03T12:28:01.557Z,1.80
2022-10-03T12:33:10.481Z,1.70
2022-10-03T12:38:19.315Z,1.70
2022-10-03T12:43:30.056Z,1.80
2022-10-03T12:48:42.389Z,1.60
2022-10-03T12:53:52.681Z,1.60
2022-10-03T12:59:03.368Z,1.57
2022-10-03T13:04:15.279Z,1.70
2022-10-03T13:09:25.959Z,1.87
2022-10-03T13:14:38.530Z,1.77
2022-10-03T13:19:53.767Z,1.53
2022-10-03T13:25:04.919Z,1.60
2022-10-03T13:30:15.290Z,1.60
2022-10-03T13:35:27.506Z,1.67
2022-10-03T13:40:38.607Z,1.90
2022-10-03T13:45:51.352Z,1.70
2022-10-03T13:51:04.377Z,1.70
2022-10-03T13:56:16.757Z,1.60
2022-10-03T14:01:32.105Z,1.70
2022-10-03T14:06:44.477Z,2.00
2022-10-03T14:11:57.545Z,1.90
2022-10-03T14:17:10.021Z,1.80
2022-10-03T14:22:25.122Z,1.90
2022-10-03T14:27:36.158Z,2.00
2022-10-03T14:32:48.334Z,1.97
2022-10-03T14:37:59.422Z,2.47
2022-10-03T14:43:10.856Z,1.80
2022-10-03T14:48:26.434Z,2.20
2022-10-03T14:53:34.552Z,1.90
2022-10-03T14:58:48.237Z,2.10
2022-10-03T15:03:58.993Z,2.20
2022-10-03T15:09:14.011Z,2.00
2022-10-03T15:14:29.604Z,2.10
2022-10-03T15:19:41.009Z,2.17
2022-10-03T15:24:50.599Z,2.20
2022-10-03T15:30:02.790Z,2.20
2022-10-03T15:35:16.771Z,2.27
2022-10-03T15:40:28.868Z,2.27
2022-10-03T15:45:39.001Z,2.07
2022-10-03T15:50:51.804Z,2.50
2022-10-03T15:56:02.623Z,2.10
2022-10-03T16:01:13.436Z,2.40
2022-10-03T16:06:23.467Z,2.13
2022-10-03T16:11:37.452Z,2.63
2022-10-03T16:16:48.550Z,2.17
2022-10-03T16:21:58.379Z,2.23
2022-10-03T16:27:09.311Z,2.50
2022-10-03T16:32:19.975Z,2.23
2022-10-03T16:37:35.255Z,2.37
2022-10-03T16:42:49.388Z,2.23
2022-10-03T16:48:02.324Z,2.50
2022-10-03T16:53:11.974Z,2.33
2022-10-03T16:58:24.387Z,2.13
2022-10-03T17:03:35.019Z,2.60
2022-10-03T17:08:51.898Z,2.17
2022-10-03T17:14:02.994Z,2.00
2022-10-03T17:19:12.386Z,1.90
2022-10-03T17:24:24.349Z,1.80
2022-10-03T17:29:35.958Z,2.10
2022-10-03T17:34:47.627Z,1.70
2022-10-03T17:39:59.558Z,1.93
2022-10-03T17:45:11.998Z,2.10
2022-10-03T17:50:23.647Z,1.97
2022-10-03T17:55:34.581Z,1.97
2022-10-03T18:00:48.338Z,1.90
2022-10-03T18:05:58.569Z,2.10
2022-10-03T18:11:10.331Z,2.03
2022-10-03T18:16:23.016Z,2.30
2022-10-03T18:21:34.957Z,1.80
2022-10-03T18:26:45.626Z,2.27
2022-10-03T18:31:56.141Z,2.40
2022-10-03T18:37:08.263Z,2.70
2022-10-03T18:42:20.197Z,2.60
2022-10-03T18:47:30.066Z,2.23
2022-10-03T18:52:41.481Z,2.33
2022-10-03T18:57:52.977Z,2.60
2022-10-03T19:03:03.887Z,2.27
2022-10-03T19:08:14.648Z,2.50
2022-10-03T19:13:27.250Z,2.60
2022-10-03T19:18:39.026Z,2.77
2022-10-03T19:23:50.269Z,2.60
2022-10-03T19:29:02.573Z,3.00
2022-10-03T19:34:14.117Z,2.70
2022-10-03T19:39:23.670Z,2.87
2022-10-03T19:44:34.111Z,3.07
2022-10-03T19:49:44.461Z,3.20
2022-10-03T19:54:53.176Z,2.97
2022-10-03T20:00:03.841Z,2.87
2022-10-03T20:05:15.828Z,3.13
2022-10-03T20:10:27.188Z,2.83
2022-10-03T20:15:39.139Z,2.73
2022-10-03T20:20:50.303Z,2.73
2022-10-03T20:25:59.258Z,2.63
2022-10-03T20:31:07.998Z,2.40
2022-10-03T20:36:19.105Z,2.53
2022-10-03T20:41:30.170Z,2.70
2022-10-03T20:46:41.205Z,2.33
2022-10-03T20:51:51.839Z,2.60
2022-10-03T20:57:02.355Z,2.30
2022-10-03T21:02:13.452Z,2.80
2022-10-03T21:07:24.380Z,2.60
2022-10-03T21:12:35.324Z,2.50
2022-10-03T21:17:46.608Z,2.80
2022-10-03T21:23:00.009Z,2.80
2022-10-03T21:28:11.498Z,2.90
2022-10-03T21:33:23.356Z,3.30
2022-10-03T21:38:37.015Z,3.80
2022-10-03T21:43:49.154Z,3.30
2022-10-03T21:48:59.726Z,3.00
2022-10-03T21:54:09.986Z,2.83
2022-10-03T21:59:18.817Z,2.50
2022-10-03T22:04:32.198Z,2.80
2022-10-03T22:09:42.682Z,2.10
2022-10-03T22:14:54.601Z,1.80
2022-10-03T22:20:03.371Z,2.30
2022-10-03T22:25:15.405Z,1.80
2022-10-03T22:30:23.947Z,2.20
2022-10-03T22:35:34.493Z,1.90
2022-10-03T22:40:43.573Z,2.10
2022-10-03T22:45:56.524Z,1.90
2022-10-03T22:51:07.256Z,2.00
2022-10-03T22:56:17.926Z,1.83
2022-10-03T23:01:26.565Z,1.70
2022-10-03T23:06:35.316Z,1.70
2022-10-03T23:11:45.963Z,1.40
2022-10-03T23:16:57.481Z,1.70
2022-10-03T23:22:07.914Z,1.60
2022-10-03T23:27:18.024Z,1.60
2022-10-03T23:32:28.453Z,2.10
2022-10-03T23:37:39.108Z,2.50
2022-10-03T23:42:47.622Z,2.33
2022-10-03T23:47:58.138Z,2.60
2022-10-03T23:53:07.553Z,2.40
2022-10-03T23:58:18.075Z,2.70
